createdAt,value
2022-08-02T00:00:00.073Z,17.40
2022-08-02T00:10:00.133Z,17.60
2022-08-02T00:20:00.129Z,20.00
2022-08-02T00:30:01.228Z,18.40
2022-08-02T00:40:01.007Z,16.40
2022-08-02T00:50:00.081Z,16.00
2022-08-02T01:00:00.107Z,15.20
2022-08-02T01:10:00.123Z,18.60
2022-08-02T01:20:01.350Z,20.90
2022-08-02T01:30:00.091Z,19.80
2022-08-02T01:40:01.193Z,16.50
2022-08-02T01:50:00.088Z,22.10
2022-08-02T02:00:00.134Z,21.80
2022-08-02T02:10:00.087Z,22.40
2022-08-02T02:20:00.084Z,19.00
2022-08-02T02:30:00.101Z,23.90
2022-08-02T02:40:00.117Z,17.00
2022-08-02T02:50:00.126Z,16.00
2022-08-02T03:00:00.120Z,9.90
2022-08-02T03:10:00.095Z,23.00
2022-08-02T03:20:00.093Z,18.80
2022-08-02T03:30:01.035Z,19.90
2022-08-02T03:40:00.110Z,19.00
2022-08-02T03:50:00.139Z,24.20
2022-08-02T04:00:00.117Z,28.30
2022-08-02T04:10:01.398Z,22.10
2022-08-02T04:20:00.145Z,22.30
2022-08-02T04:30:00.119Z,18.90
2022-08-02T04:40:00.119Z,22.30
2022-08-02T04:50:00.115Z,17.70
2022-08-02T05:00:01.497Z,31.90
2022-08-02T05:10:00.115Z,30.50
2022-08-02T05:20:00.135Z,29.10
2022-08-02T05:30:00.117Z,20.20
2022-08-02T05:40:00.778Z,33.90
2022-08-02T05:50:00.128Z,27.20
2022-08-02T06:00:00.126Z,24.80
2022-08-02T06:10:00.107Z,30.00
2022-08-02T06:20:00.140Z,21.30
2022-08-02T06:30:00.125Z,17.70
2022-08-02T06:40:00.117Z,22.60
2022-08-02T06:50:00.390Z,27.60
2022-08-02T07:00:00.112Z,23.20
2022-08-02T07:10:01.028Z,28.30
2022-08-02T07:20:00.150Z,21.00
2022-08-02T07:30:00.104Z,19.20
2022-08-02T07:40:00.090Z,31.10
2022-08-02T07:50:00.138Z,33.40
2022-08-02T08:00:00.107Z,14.40
2022-08-02T08:10:00.111Z,24.60
2022-08-02T08:20:00.145Z,20.60
2022-08-02T08:30:00.070Z,19.90
2022-08-02T08:40:00.152Z,18.00
2022-08-02T08:50:00.121Z,16.80
2022-08-02T09:00:00.113Z,8.20
2022-08-02T09:10:00.121Z,11.10
2022-08-02T09:20:00.104Z,22.60
2022-08-02T09:30:11.908Z,19.40
2022-08-02T09:40:00.158Z,17.00
2022-08-02T09:50:00.139Z,20.20
2022-08-02T10:00:00.121Z,28.90
2022-08-02T10:10:00.168Z,15.00
2022-08-02T10:20:04.136Z,33.00
2022-08-02T10:30:00.153Z,28.30
2022-08-02T10:40:00.127Z,33.00
2022-08-02T10:50:00.292Z,48.80
2022-08-02T11:00:00.119Z,56.10
2022-08-02T11:10:00.112Z,76.50
2022-08-02T11:20:00.113Z,733.30
2022-08-02T11:30:00.126Z,759.50
2022-08-02T11:40:00.079Z,788.50
2022-08-02T11:50:00.109Z,849.00
2022-08-02T12:00:00.111Z,886.50
2022-08-02T12:10:00.141Z,876.60
2022-08-02T12:20:00.125Z,767.50
2022-08-02T12:30:00.149Z,859.60
2022-08-02T12:40:00.133Z,877.30
2022-08-02T12:50:00.234Z,876.00
2022-08-02T13:00:00.126Z,818.60
2022-08-02T13:10:00.431Z,820.30
2022-08-02T13:20:00.088Z,881.90
2022-08-02T13:30:00.129Z,852.80
2022-08-02T13:40:20.341Z,873.60
2022-08-02T13:50:01.145Z,864.60
2022-08-02T14:00:00.156Z,833.10
2022-08-02T14:10:00.103Z,857.40
2022-08-02T14:20:00.117Z,869.70
2022-08-02T14:30:00.142Z,146.50
2022-08-02T14:40:01.107Z,257.30
2022-08-02T14:50:00.213Z,193.80
2022-08-02T15:00:00.124Z,200.40
2022-08-02T15:10:00.105Z,229.40
2022-08-02T15:20:03.044Z,197.40
2022-08-02T15:30:00.673Z,185.40
2022-08-02T15:40:01.219Z,199.50
2022-08-02T15:50:00.108Z,135.30
2022-08-02T16:00:00.134Z,169.10
2022-08-02T16:10:00.123Z,188.00
2022-08-02T16:20:00.124Z,187.20
2022-08-02T16:30:00.126Z,157.00
2022-08-02T16:40:00.166Z,150.00
2022-08-02T16:50:06.186Z,156.10
2022-08-02T17:00:00.197Z,98.50
2022-08-02T17:10:01.681Z,117.30
2022-08-02T17:20:01.389Z,119.90
2022-08-02T17:30:00.160Z,155.40
2022-08-02T17:40:00.139Z,134.60
2022-08-02T17:50:00.283Z,193.30
2022-08-02T18:00:03.741Z,117.50
2022-08-02T18:10:00.098Z,133.20
2022-08-02T18:20:06.040Z,138.80
2022-08-02T18:30:04.311Z,130.10
2022-08-02T18:40:00.114Z,121.90
2022-08-02T18:50:00.224Z,65.90
2022-08-02T19:00:02.584Z,82.80
2022-08-02T19:10:00.137Z,47.90
2022-08-02T19:20:00.137Z,51.70
2022-08-02T19:30:00.160Z,52.50
2022-08-02T19:40:00.119Z,52.30
2022-08-02T19:50:00.162Z,61.80
2022-08-02T20:00:00.158Z,24.80
2022-08-02T20:10:00.124Z,20.60
2022-08-02T20:20:00.153Z,22.50
2022-08-02T20:30:00.108Z,38.70
2022-08-02T20:40:00.122Z,27.40
2022-08-02T20:50:00.178Z,35.30
2022-08-02T21:00:00.112Z,36.90
2022-08-02T21:10:00.110Z,34.70
2022-08-02T21:20:01.459Z,27.90
2022-08-02T21:30:00.105Z,27.00
2022-08-02T21:40:00.139Z,21.00
2022-08-02T21:50:09.075Z,27.30
2022-08-02T22:00:00.118Z,23.50
2022-08-02T22:10:00.148Z,23.40
2022-08-02T22:20:00.132Z,19.40
2022-08-02T22:30:00.082Z,27.00
2022-08-02T22:40:06.189Z,19.20
2022-08-02T22:50:00.218Z,26.90
2022-08-02T23:00:00.230Z,22.70
2022-08-02T23:10:00.100Z,15.70
2022-08-02T23:20:00.130Z,18.30
2022-08-02T23:30:00.124Z,22.80
2022-08-02T23:40:00.156Z,20.20
2022-08-02T23:50:00.287Z,21.90
